Terminal Aerodrome Forecast
Issued by NWS

Home | Current Version | Previous Version | Text Only | Print | Product List | Glossary On
Versions: 1 2 3 4 5 6 7 8 9 10 11 12 13 14 15 16 17 18 19 20
000
FTUS43 KIWX 100325 AAA
TAFSBN
TAF AMD
KSBN 100325Z 1003/1024 29014G20KT 2SM -SHSN SCT015 OVC025
      TEMPO 1003/1007 1SM -SHSN OVC015
     FM100700 30013G21KT 1 1/2SM -SHSN BLSN OVC015
      TEMPO 1010/1014 1/2SM SHSN BLSN VV005
     FM101400 30014G21KT 2SM -SHSN OVC015=

USA.gov is the U.S. government's official web portal to all federal, state and local government web resources and services.